General Aviation Weather

Text Reports

Enter one or more of the following location identifiers separated by a space:

Zip Code, Four-Character ICAO or Three-Character IATA airport codes.

METAR - Aviation Routine Weather Report
KRZN - Siren, Wisconsin
Updated at 7:30 PM GMT on March 03, 2015 (1:30 PM CST):
METAR KRZN 031930Z AUTO 31011G16KT 4SM -SN BKN019 OVC026 M03/M07 A2962 RMK AO2 T10301066
TAF - Terminal Area Forecast
KRZN - Siren, Wisconsin
Updated at 7:30 PM GMT on March 03, 2015 (1:30 PM CST):
No TAF is currently available for this location.
Decoded:
No decoded TAF is available.
PIREP - Pilot Weather Report
KRZN - Siren, Wisconsin
Updated at 7:30 PM GMT on March 03, 2015 (1:30 PM CST):
No PIREP is currently available for this location.
AIRMET - Airmens Meteorological Information
KRZN - Siren, Wisconsin
Updated at 7:30 PM GMT on March 03, 2015 (1:30 PM CST):
No AIRMET is currently available for this location.
SIGMET - Significant Meteorological Information
KRZN - Siren, Wisconsin
Updated at 7:30 PM GMT on March 03, 2015 (1:30 PM CST):
No SIGMET is currently available for this location.
NOTAM - Notice to Airmen
KRZN - Siren, Wisconsin
Updated at 7:30 PM GMT on March 03, 2015 (1:30 PM CST):
No NOTAM is currently available for this location.
Forecast Area
KRZN - Siren, Wisconsin
Updated at 7:30 PM GMT on March 03, 2015 (1:30 PM CST):
No NOTAM is currently available for this location.
Aviation Weather Maps